createdAt,value
2018-03-02T00:01:00.940Z,28.77
2018-03-02T00:02:05.402Z,25.65
2018-03-02T00:03:09.871Z,40.88
2018-03-02T00:04:13.676Z,40.58
2018-03-02T00:05:18.148Z,32.95
2018-03-02T00:06:23.363Z,29.87
2018-03-02T00:07:27.530Z,34.85
2018-03-02T00:08:31.993Z,32.33
2018-03-02T00:09:37.221Z,21.10
2018-03-02T00:10:42.468Z,39.78
2018-03-02T00:11:46.917Z,27.27
2018-03-02T00:12:51.369Z,27.05
2018-03-02T00:13:56.593Z,38.15
2018-03-02T00:15:01.821Z,38.58
2018-03-02T00:16:06.291Z,29.08
2018-03-02T00:17:10.795Z,23.30
2018-03-02T00:18:15.258Z,37.28
2018-03-02T00:19:20.474Z,32.03
2018-03-02T00:20:24.927Z,33.15
2018-03-02T00:21:29.411Z,24.27
2018-03-02T00:22:34.695Z,35.20
2018-03-02T00:23:39.142Z,30.83
2018-03-02T00:24:43.585Z,43.33
2018-03-02T00:25:48.038Z,34.22
2018-03-02T00:26:52.514Z,34.88
2018-03-02T00:27:56.980Z,28.12
2018-03-02T00:29:01.423Z,23.83
2018-03-02T00:30:06.629Z,25.37
2018-03-02T00:31:11.858Z,35.35
2018-03-02T00:32:16.341Z,32.05
2018-03-02T00:33:20.808Z,37.58
2018-03-02T00:34:25.261Z,29.50
2018-03-02T00:35:29.714Z,18.62
2018-03-02T00:36:34.947Z,49.35
2018-03-02T00:37:40.182Z,40.03
2018-03-02T00:38:44.650Z,20.67
2018-03-02T00:39:49.099Z,36.78
2018-03-02T00:40:54.317Z,36.63
2018-03-02T00:41:59.542Z,27.85
2018-03-02T00:43:04.818Z,35.78
2018-03-02T00:44:09.271Z,29.48
2018-03-02T00:45:13.730Z,15.43
2018-03-02T00:46:18.944Z,25.85
2018-03-02T00:47:24.157Z,33.33
2018-03-02T00:48:29.402Z,31.17
2018-03-02T00:49:33.877Z,37.85
2018-03-02T00:50:38.326Z,29.52
2018-03-02T00:51:43.918Z,25.98
2018-03-02T00:52:48.389Z,24.48
2018-03-02T00:53:52.840Z,34.22
2018-03-02T00:54:58.796Z,19.12
2018-03-02T00:56:03.248Z,29.33
2018-03-02T00:57:07.711Z,36.28
2018-03-02T00:58:12.170Z,35.45
2018-03-02T00:59:16.675Z,34.08
2018-03-02T01:00:21.885Z,39.78
2018-03-02T01:01:27.142Z,34.75
2018-03-02T01:02:31.590Z,32.80
2018-03-02T01:03:36.322Z,37.13
2018-03-02T01:04:40.782Z,25.65
2018-03-02T01:05:45.245Z,37.03
2018-03-02T01:06:49.924Z,39.80
2018-03-02T01:07:54.386Z,36.67
2018-03-02T01:08:58.829Z,31.70
2018-03-02T01:10:03.130Z,41.90
2018-03-02T01:11:07.589Z,35.10
2018-03-02T01:12:12.029Z,35.47
2018-03-02T01:13:16.478Z,33.50
2018-03-02T01:14:20.933Z,25.73
2018-03-02T01:15:25.407Z,27.37
2018-03-02T01:16:29.527Z,26.25
2018-03-02T01:17:33.973Z,28.92
2018-03-02T01:18:39.199Z,22.37
2018-03-02T01:19:43.660Z,38.97
2018-03-02T01:20:48.133Z,35.10
2018-03-02T01:21:53.349Z,29.70
2018-03-02T01:22:57.806Z,35.05
2018-03-02T01:24:02.263Z,43.05
2018-03-02T01:25:06.713Z,33.55
2018-03-02T01:26:11.196Z,34.78
2018-03-02T01:27:15.646Z,36.05
2018-03-02T01:28:20.106Z,40.20
2018-03-02T01:29:24.559Z,37.13
2018-03-02T01:30:29.009Z,31.55
2018-03-02T01:31:33.507Z,34.45
2018-03-02T01:32:37.850Z,35.17
2018-03-02T01:33:42.287Z,29.63
2018-03-02T01:34:47.525Z,40.53
2018-03-02T01:35:52.737Z,42.22
2018-03-02T01:36:57.987Z,33.75
2018-03-02T01:38:03.296Z,29.05
2018-03-02T01:39:07.749Z,27.90
2018-03-02T01:40:12.193Z,34.00
2018-03-02T01:41:16.655Z,36.75
2018-03-02T01:42:21.892Z,31.70
2018-03-02T01:43:25.999Z,45.78
2018-03-02T01:44:30.254Z,27.87
2018-03-02T01:45:34.754Z,35.33
2018-03-02T01:46:39.223Z,44.85
2018-03-02T01:47:44.272Z,28.58
2018-03-02T01:48:48.733Z,35.78
2018-03-02T01:49:53.960Z,34.10
2018-03-02T01:50:59.173Z,40.72
2018-03-02T01:52:03.640Z,33.78
2018-03-02T01:53:08.114Z,39.75
2018-03-02T01:54:13.329Z,31.35
2018-03-02T01:55:17.772Z,50.90
2018-03-02T01:56:22.230Z,39.00
2018-03-02T01:57:26.696Z,35.15
2018-03-02T01:58:31.180Z,33.85
2018-03-02T01:59:35.613Z,31.33
2018-03-02T02:00:40.070Z,40.30
2018-03-02T02:01:44.542Z,35.10
2018-03-02T02:02:49.740Z,35.92
2018-03-02T02:03:54.997Z,26.48
2018-03-02T02:05:00.022Z,25.23
2018-03-02T02:06:04.470Z,29.35
2018-03-02T02:07:08.912Z,37.15
2018-03-02T02:08:13.365Z,27.60
2018-03-02T02:09:17.853Z,42.05
2018-03-02T02:10:23.068Z,33.75
2018-03-02T02:11:28.285Z,25.90
2018-03-02T02:12:32.740Z,31.95
2018-03-02T02:13:37.186Z,31.58
2018-03-02T02:14:42.078Z,29.85
2018-03-02T02:15:46.512Z,33.65
2018-03-02T02:16:50.953Z,31.87
2018-03-02T02:17:55.394Z,28.83
2018-03-02T02:18:59.851Z,27.50
2018-03-02T02:20:04.305Z,33.05
2018-03-02T02:21:09.524Z,41.85
2018-03-02T02:22:14.741Z,35.53
2018-03-02T02:23:19.207Z,32.03
2018-03-02T02:24:23.654Z,34.08
2018-03-02T02:25:28.109Z,26.25
2018-03-02T02:26:32.561Z,28.27
2018-03-02T02:27:37.018Z,43.13
2018-03-02T02:28:42.241Z,37.75
2018-03-02T02:29:47.474Z,44.90
2018-03-02T02:30:51.968Z,55.83
2018-03-02T02:31:56.423Z,35.85
2018-03-02T02:33:00.883Z,29.58
2018-03-02T02:34:05.017Z,43.78
2018-03-02T02:35:10.241Z,40.12
2018-03-02T02:36:15.481Z,46.58
2018-03-02T02:37:19.928Z,32.10
2018-03-02T02:38:24.378Z,30.10
2018-03-02T02:39:28.521Z,39.28
2018-03-02T02:40:32.972Z,35.22
2018-03-02T02:41:38.227Z,36.03
2018-03-02T02:42:43.461Z,40.97
2018-03-02T02:43:47.910Z,33.83
2018-03-02T02:44:52.361Z,36.10
2018-03-02T02:45:56.817Z,40.92
2018-03-02T02:47:01.276Z,36.78
2018-03-02T02:48:05.722Z,28.95
2018-03-02T02:49:10.169Z,44.83
2018-03-02T02:50:14.625Z,30.62
2018-03-02T02:51:19.065Z,24.70
2018-03-02T02:52:23.545Z,43.60
2018-03-02T02:53:27.989Z,45.97
2018-03-02T02:54:32.148Z,51.65
2018-03-02T02:55:36.602Z,26.00
2018-03-02T02:56:41.045Z,40.30
2018-03-02T02:57:45.505Z,36.85
2018-03-02T02:58:49.971Z,24.12
2018-03-02T02:59:54.417Z,41.10
2018-03-02T03:00:59.642Z,37.70
2018-03-02T03:02:04.085Z,47.28
2018-03-02T03:03:08.560Z,42.38
2018-03-02T03:04:13.015Z,42.28
2018-03-02T03:05:17.463Z,40.72
2018-03-02T03:06:21.588Z,28.52
2018-03-02T03:07:26.048Z,42.60
2018-03-02T03:08:30.517Z,44.00
2018-03-02T03:09:34.965Z,41.03
2018-03-02T03:10:39.409Z,33.17
2018-03-02T03:11:43.860Z,35.60
2018-03-02T03:12:49.093Z,45.88
2018-03-02T03:13:54.324Z,37.20
2018-03-02T03:14:59.545Z,34.88
2018-03-02T03:16:04.763Z,39.55
2018-03-02T03:17:09.212Z,34.25
2018-03-02T03:19:13.426Z,36.10
2018-03-02T03:20:17.544Z,30.85
2018-03-02T03:21:21.988Z,31.48
2018-03-02T03:22:26.452Z,43.65
2018-03-02T03:23:30.899Z,23.25
2018-03-02T03:24:35.385Z,42.92
2018-03-02T03:25:39.834Z,33.50
2018-03-02T03:26:44.297Z,42.70
2018-03-02T03:27:48.749Z,33.70
2018-03-02T03:28:53.266Z,26.52
2018-03-02T03:29:57.740Z,33.22
2018-03-02T03:31:01.846Z,31.45
2018-03-02T03:32:06.297Z,34.92
2018-03-02T03:33:10.752Z,43.45
2018-03-02T03:34:15.211Z,33.42
2018-03-02T03:35:19.680Z,35.22
2018-03-02T03:36:23.806Z,32.42
2018-03-02T03:37:28.239Z,46.03
2018-03-02T03:38:32.681Z,27.35
2018-03-02T03:39:37.191Z,34.88
2018-03-02T03:40:42.423Z,29.70
2018-03-02T03:41:47.402Z,37.40
2018-03-02T03:42:51.884Z,45.83
2018-03-02T03:43:56.346Z,47.17
2018-03-02T03:45:00.470Z,37.13
2018-03-02T03:46:05.717Z,40.80
2018-03-02T03:47:10.190Z,42.90
2018-03-02T03:48:14.634Z,37.80
2018-03-02T03:49:19.091Z,32.88
2018-03-02T03:50:23.545Z,33.00
2018-03-02T03:51:28.780Z,42.38
2018-03-02T03:52:33.291Z,41.70
2018-03-02T03:53:38.498Z,45.22
2018-03-02T03:54:42.943Z,42.17
2018-03-02T03:55:47.393Z,36.50
2018-03-02T03:56:51.859Z,43.03
2018-03-02T03:57:56.315Z,36.10
2018-03-02T03:59:00.777Z,42.22
2018-03-02T04:00:04.905Z,38.50
2018-03-02T04:01:09.364Z,36.85
2018-03-02T04:02:13.505Z,28.55
2018-03-02T04:03:17.951Z,41.47
2018-03-02T04:04:22.456Z,38.90
2018-03-02T04:05:26.880Z,25.40
2018-03-02T04:06:31.336Z,37.35
2018-03-02T04:07:36.646Z,31.65
2018-03-02T04:08:41.286Z,43.22
2018-03-02T04:09:46.312Z,39.67
2018-03-02T04:10:50.763Z,26.95
2018-03-02T04:11:55.236Z,37.45
2018-03-02T04:12:59.697Z,48.83
2018-03-02T04:14:04.145Z,38.65
2018-03-02T04:15:09.035Z,45.90
2018-03-02T04:16:13.493Z,35.20
2018-03-02T04:17:17.945Z,49.15
2018-03-02T04:18:22.418Z,44.17
2018-03-02T04:19:26.860Z,49.97
2018-03-02T04:20:31.310Z,37.38
2018-03-02T04:21:36.520Z,40.03
2018-03-02T04:22:40.971Z,40.45
2018-03-02T04:23:45.447Z,42.95
2018-03-02T04:24:49.564Z,37.83
2018-03-02T04:25:54.781Z,38.22
2018-03-02T04:26:59.980Z,24.83
2018-03-02T04:28:04.116Z,37.53
2018-03-02T04:29:09.379Z,43.87
2018-03-02T04:30:13.829Z,39.55
2018-03-02T04:31:18.306Z,35.78
2018-03-02T04:32:22.758Z,32.88
2018-03-02T04:33:27.216Z,36.65
2018-03-02T04:34:31.704Z,46.80
2018-03-02T04:35:36.933Z,43.22
2018-03-02T04:36:41.384Z,41.80
2018-03-02T04:37:45.833Z,45.65
2018-03-02T04:38:50.388Z,41.75
2018-03-02T04:39:55.680Z,29.70
2018-03-02T04:41:00.179Z,42.55
2018-03-02T04:42:04.399Z,35.80
2018-03-02T04:43:08.910Z,39.70
2018-03-02T04:44:13.254Z,43.53
2018-03-02T04:45:18.489Z,38.67
2018-03-02T04:46:22.944Z,43.67
2018-03-02T04:47:27.392Z,33.97
2018-03-02T04:48:31.559Z,44.58
2018-03-02T04:49:35.998Z,42.47
2018-03-02T04:50:40.473Z,47.35
2018-03-02T04:51:44.928Z,62.70
2018-03-02T04:52:49.374Z,47.47
2018-03-02T04:53:54.044Z,42.55
2018-03-02T04:54:58.489Z,51.63
2018-03-02T04:56:02.852Z,45.25
2018-03-02T04:57:07.100Z,55.17
2018-03-02T04:58:11.573Z,39.53
2018-03-02T04:59:16.017Z,37.60
2018-03-02T05:00:21.246Z,44.22
2018-03-02T05:01:26.321Z,59.13
2018-03-02T05:02:30.773Z,36.88
2018-03-02T05:03:35.981Z,43.58
2018-03-02T05:04:40.442Z,45.95
2018-03-02T05:05:44.891Z,42.92
2018-03-02T05:06:49.352Z,47.45
2018-03-02T05:07:53.804Z,37.28
2018-03-02T05:08:58.265Z,40.50
2018-03-02T05:10:03.491Z,30.92
2018-03-02T05:11:08.694Z,49.78
2018-03-02T05:12:13.183Z,42.15
2018-03-02T05:13:17.688Z,32.38
2018-03-02T05:14:22.333Z,52.35
2018-03-02T05:15:27.092Z,35.08
2018-03-02T05:16:31.591Z,39.70
2018-03-02T05:17:36.840Z,32.10
2018-03-02T05:18:41.294Z,37.72
2018-03-02T05:19:45.760Z,41.92
2018-03-02T05:20:50.313Z,37.78
2018-03-02T05:21:54.771Z,40.08
2018-03-02T05:23:00.025Z,35.15
2018-03-02T05:24:04.477Z,42.13
2018-03-02T05:25:08.929Z,41.37
2018-03-02T05:26:13.369Z,48.72
2018-03-02T05:27:17.875Z,30.40
2018-03-02T05:28:22.390Z,40.38
2018-03-02T05:29:26.835Z,42.17
2018-03-02T05:30:31.293Z,33.17
2018-03-02T05:31:35.738Z,32.00
2018-03-02T05:32:40.180Z,32.05
2018-03-02T05:33:44.649Z,50.42
2018-03-02T05:34:49.099Z,52.08
2018-03-02T05:35:53.548Z,56.35
2018-03-02T05:36:57.992Z,45.47
2018-03-02T05:38:02.447Z,44.72
2018-03-02T05:39:07.678Z,30.70
2018-03-02T05:40:12.897Z,40.20
2018-03-02T05:41:18.114Z,36.75
2018-03-02T05:42:22.561Z,38.50
2018-03-02T05:43:27.014Z,29.33
2018-03-02T05:44:31.524Z,34.72
2018-03-02T05:45:36.045Z,45.08
2018-03-02T05:46:40.478Z,45.92
2018-03-02T05:47:45.375Z,47.08
2018-03-02T05:48:49.482Z,52.50
2018-03-02T05:49:53.957Z,41.35
2018-03-02T05:50:58.416Z,54.13
2018-03-02T05:52:02.891Z,38.47
2018-03-02T05:53:07.345Z,45.30
2018-03-02T05:54:11.805Z,41.37
2018-03-02T05:55:16.273Z,53.30
2018-03-02T05:56:20.718Z,46.13
2018-03-02T05:57:24.846Z,42.60
2018-03-02T05:58:29.290Z,49.20
2018-03-02T05:59:33.753Z,36.22
2018-03-02T06:00:38.238Z,46.75
2018-03-02T06:01:42.726Z,32.72
2018-03-02T06:02:47.181Z,53.92
2018-03-02T06:03:51.652Z,40.88
2018-03-02T06:04:56.109Z,43.58
2018-03-02T06:06:00.576Z,47.20
2018-03-02T06:07:04.757Z,44.28
2018-03-02T06:08:08.881Z,51.88
2018-03-02T06:10:28.092Z,41.42
2018-03-02T06:11:32.591Z,48.97
2018-03-02T06:12:37.797Z,46.50
2018-03-02T06:13:42.249Z,51.35
2018-03-02T06:14:46.689Z,48.45
2018-03-02T06:15:51.161Z,45.85
2018-03-02T06:16:55.638Z,49.35
2018-03-02T06:18:02.055Z,50.63
2018-03-02T06:19:06.486Z,41.63
2018-03-02T06:20:10.596Z,43.13
2018-03-02T06:21:15.045Z,66.18
2018-03-02T06:22:19.512Z,58.03
2018-03-02T06:23:23.971Z,51.80
2018-03-02T06:24:28.408Z,66.40
2018-03-02T06:25:32.896Z,59.20
2018-03-02T06:26:37.352Z,58.35
2018-03-02T06:27:41.836Z,43.85
2018-03-02T06:28:45.955Z,47.83
2018-03-02T06:29:50.417Z,52.50
2018-03-02T06:30:54.871Z,59.38
2018-03-02T06:31:59.326Z,62.15
2018-03-02T06:33:04.587Z,44.40
2018-03-02T06:34:09.029Z,51.15
2018-03-02T06:35:13.525Z,56.22
2018-03-02T06:36:17.988Z,38.08
2018-03-02T06:37:22.432Z,43.15
2018-03-02T06:38:26.921Z,60.15
2018-03-02T06:39:32.145Z,41.10
2018-03-02T06:40:37.353Z,65.22
2018-03-02T06:41:41.805Z,48.47
2018-03-02T06:42:46.469Z,47.10
2018-03-02T06:43:50.938Z,41.50
2018-03-02T06:44:55.445Z,36.70
2018-03-02T06:45:59.897Z,56.67
2018-03-02T06:47:04.476Z,46.33
2018-03-02T06:48:08.944Z,46.40
2018-03-02T06:49:13.425Z,48.83
2018-03-02T06:50:17.944Z,48.70
2018-03-02T06:51:22.376Z,44.83
2018-03-02T06:52:26.824Z,50.12
2018-03-02T06:53:31.474Z,39.83
2018-03-02T06:54:35.941Z,50.22
2018-03-02T06:55:40.404Z,35.95
2018-03-02T06:56:44.869Z,47.38
2018-03-02T06:57:49.318Z,47.22
2018-03-02T06:58:53.757Z,22.02
2018-03-02T06:59:58.996Z,54.42
2018-03-02T07:01:03.461Z,58.85
2018-03-02T07:02:07.901Z,54.25
2018-03-02T07:03:12.353Z,21.75
2018-03-02T07:04:16.897Z,40.63
2018-03-02T07:05:21.504Z,42.30
2018-03-02T07:06:25.955Z,44.00
2018-03-02T07:07:30.422Z,51.45
2018-03-02T07:08:34.874Z,51.15
2018-03-02T07:09:39.329Z,38.30
2018-03-02T07:10:43.819Z,37.95
2018-03-02T07:11:49.037Z,33.83
2018-03-02T07:12:54.253Z,36.70
2018-03-02T07:13:58.729Z,47.55
2018-03-02T07:15:03.184Z,50.63
2018-03-02T07:16:07.651Z,63.65
2018-03-02T07:17:12.110Z,33.78
2018-03-02T07:18:16.226Z,58.22
2018-03-02T07:19:21.433Z,64.10
2018-03-02T07:20:25.893Z,43.33
2018-03-02T07:21:30.420Z,48.78
2018-03-02T07:22:35.074Z,51.30
2018-03-02T07:23:40.386Z,37.20
2018-03-02T07:24:44.845Z,47.42
2018-03-02T07:25:49.285Z,45.22
2018-03-02T07:26:53.792Z,60.83
2018-03-02T07:27:58.274Z,67.22
2018-03-02T07:29:02.977Z,62.03
2018-03-02T07:30:08.033Z,48.42
2018-03-02T07:31:12.504Z,54.58
2018-03-02T07:32:16.969Z,66.62
2018-03-02T07:33:21.432Z,49.22
2018-03-02T07:34:25.894Z,49.55
2018-03-02T07:35:30.382Z,63.42
2018-03-02T07:36:34.843Z,41.63
2018-03-02T07:37:39.326Z,56.80
2018-03-02T07:38:43.804Z,53.45
2018-03-02T07:39:49.089Z,46.70
2018-03-02T07:40:53.541Z,64.87
2018-03-02T07:41:58.776Z,56.58
2018-03-02T07:43:04.000Z,50.67
2018-03-02T07:44:09.271Z,48.70
2018-03-02T07:45:13.712Z,56.40
2018-03-02T07:46:17.836Z,52.92
2018-03-02T07:47:23.080Z,56.70
2018-03-02T07:48:27.226Z,71.93
2018-03-02T07:49:31.681Z,50.35
2018-03-02T07:50:36.129Z,58.08
2018-03-02T07:51:40.582Z,47.38
2018-03-02T07:52:45.034Z,37.60
2018-03-02T07:53:49.497Z,51.80
2018-03-02T07:54:53.950Z,58.55
2018-03-02T07:55:58.401Z,58.22
2018-03-02T07:57:02.912Z,51.20
2018-03-02T07:58:07.934Z,48.63
2018-03-02T07:59:12.405Z,58.33
2018-03-02T08:00:17.429Z,62.97
2018-03-02T08:01:22.677Z,53.35
2018-03-02T08:02:27.131Z,43.55
2018-03-02T08:03:31.567Z,45.60
2018-03-02T08:04:36.032Z,61.35
2018-03-02T08:05:40.485Z,71.25
2018-03-02T08:06:46.432Z,43.67
2018-03-02T08:07:51.645Z,72.65
2018-03-02T08:08:56.100Z,41.10
2018-03-02T08:10:00.593Z,55.28
2018-03-02T08:11:04.710Z,51.17
2018-03-02T08:12:09.161Z,53.70
2018-03-02T08:13:13.589Z,58.33
2018-03-02T08:14:17.705Z,64.05
2018-03-02T08:15:22.172Z,58.22
2018-03-02T08:16:26.294Z,61.63
2018-03-02T08:17:30.405Z,57.60
2018-03-02T08:18:34.535Z,44.47
2018-03-02T08:19:38.976Z,42.85
2018-03-02T08:20:43.451Z,61.67
2018-03-02T08:21:48.674Z,51.63
2018-03-02T08:22:53.116Z,62.50
2018-03-02T08:23:57.614Z,56.92
2018-03-02T08:25:02.822Z,53.92
2018-03-02T08:26:07.331Z,55.00
2018-03-02T08:27:11.613Z,53.87
2018-03-02T08:28:15.877Z,58.08
2018-03-02T08:29:20.320Z,54.95
2018-03-02T08:30:24.764Z,54.75
2018-03-02T08:31:29.433Z,55.78
2018-03-02T08:32:33.880Z,53.20
2018-03-02T08:33:38.329Z,51.03
2018-03-02T08:34:43.980Z,52.17
2018-03-02T08:35:49.181Z,63.00
2018-03-02T08:36:53.484Z,63.85
2018-03-02T08:37:58.704Z,56.60
2018-03-02T08:39:03.136Z,62.47
2018-03-02T08:40:08.023Z,48.80
2018-03-02T08:41:12.502Z,68.97
2018-03-02T08:42:16.965Z,48.80
2018-03-02T08:43:21.085Z,69.90
2018-03-02T08:44:26.310Z,44.33
2018-03-02T08:45:30.764Z,46.75
2018-03-02T08:46:35.208Z,67.03
2018-03-02T08:47:39.678Z,43.00
2018-03-02T08:48:43.788Z,58.15
2018-03-02T08:49:48.230Z,56.58
2018-03-02T08:50:52.673Z,57.00
2018-03-02T08:51:57.566Z,37.85
2018-03-02T08:53:02.046Z,40.42
2018-03-02T08:54:06.485Z,41.25
2018-03-02T08:55:10.929Z,59.53
2018-03-02T08:56:16.136Z,54.22
2018-03-02T08:57:20.596Z,49.50
2018-03-02T08:58:24.766Z,74.70
2018-03-02T08:59:29.982Z,66.22
2018-03-02T09:00:34.442Z,64.60
2018-03-02T09:01:38.561Z,45.47
2018-03-02T09:02:43.018Z,61.67
2018-03-02T09:03:47.522Z,62.92
2018-03-02T09:04:51.980Z,60.45
2018-03-02T09:05:56.250Z,74.93
2018-03-02T09:07:01.284Z,63.55
2018-03-02T09:08:06.543Z,52.15
2018-03-02T09:09:10.690Z,69.62
2018-03-02T09:10:15.141Z,64.25
2018-03-02T09:11:19.582Z,56.65
2018-03-02T09:12:24.023Z,61.33
2018-03-02T09:13:28.467Z,55.55
2018-03-02T09:14:32.945Z,65.60
2018-03-02T09:15:37.057Z,64.60
2018-03-02T09:16:42.297Z,71.53
2018-03-02T09:17:47.534Z,66.43
2018-03-02T09:18:52.952Z,67.70
2018-03-02T09:19:58.357Z,53.05
2018-03-02T09:21:02.978Z,72.97
2018-03-02T09:22:07.812Z,77.87
2018-03-02T09:23:12.264Z,77.93
2018-03-02T09:24:16.733Z,69.15
2018-03-02T09:25:21.207Z,60.12
2018-03-02T09:26:25.676Z,63.63
2018-03-02T09:27:30.896Z,83.65
2018-03-02T09:28:35.699Z,71.87
2018-03-02T09:29:40.321Z,69.45
2018-03-02T09:30:44.787Z,69.87
2018-03-02T09:31:49.234Z,63.92
2018-03-02T09:32:53.822Z,68.78
2018-03-02T09:33:58.558Z,80.38
2018-03-02T09:35:03.033Z,72.50
2018-03-02T09:36:07.656Z,67.10
2018-03-02T09:37:12.090Z,77.87
2018-03-02T09:38:16.544Z,66.55
2018-03-02T09:39:20.999Z,80.38
2018-03-02T09:40:25.452Z,71.37
2018-03-02T09:41:29.938Z,70.35
2018-03-02T09:42:34.445Z,71.90
2018-03-02T09:43:38.910Z,83.75
2018-03-02T09:44:43.365Z,74.05
2018-03-02T09:45:47.810Z,77.53
2018-03-02T09:46:53.773Z,76.00
2018-03-02T09:47:58.240Z,68.10
2018-03-02T09:49:02.912Z,68.65
2018-03-02T09:50:07.345Z,77.93
2018-03-02T09:51:11.807Z,71.80
2018-03-02T09:52:16.276Z,73.00
2018-03-02T09:53:20.715Z,79.37
2018-03-02T09:54:25.254Z,71.40
2018-03-02T09:55:29.545Z,75.80
2018-03-02T09:56:33.658Z,64.68
2018-03-02T09:57:38.899Z,68.30
2018-03-02T09:58:44.101Z,61.97
2018-03-02T09:59:49.709Z,62.60
2018-03-02T10:00:54.176Z,59.10
2018-03-02T10:01:58.634Z,67.50
2018-03-02T10:03:03.098Z,65.93
2018-03-02T10:04:07.540Z,76.57
2018-03-02T10:05:11.989Z,66.55
2018-03-02T10:06:16.452Z,74.53
2018-03-02T10:07:20.998Z,67.95
2018-03-02T10:08:25.465Z,67.57
2018-03-02T10:09:29.939Z,64.53
2018-03-02T10:10:35.246Z,61.67
2018-03-02T10:11:39.688Z,64.40
2018-03-02T10:12:44.157Z,72.05
2018-03-02T10:13:49.141Z,64.90
2018-03-02T10:14:53.597Z,74.10
2018-03-02T10:15:58.042Z,66.57
2018-03-02T10:17:03.290Z,72.10
2018-03-02T10:18:08.178Z,61.03
2018-03-02T10:19:12.641Z,68.03
2018-03-02T10:20:17.101Z,65.90
2018-03-02T10:21:21.558Z,74.82
2018-03-02T10:22:26.021Z,66.03
2018-03-02T10:23:30.659Z,48.00
2018-03-02T10:24:35.904Z,50.00
2018-03-02T10:25:40.358Z,67.95
2018-03-02T10:26:44.848Z,46.13
2018-03-02T10:27:49.302Z,49.95
2018-03-02T10:28:53.773Z,45.75
2018-03-02T10:29:58.253Z,61.20
2018-03-02T10:31:02.757Z,72.62
2018-03-02T10:32:07.763Z,58.35
2018-03-02T10:33:12.276Z,61.90
2018-03-02T10:34:16.731Z,59.70
2018-03-02T10:35:21.201Z,50.75
2018-03-02T10:36:25.341Z,70.87
2018-03-02T10:37:29.815Z,50.63
2018-03-02T10:38:34.260Z,63.85
2018-03-02T10:39:38.925Z,51.78
2018-03-02T10:40:43.531Z,63.90
2018-03-02T10:41:47.993Z,57.72
2018-03-02T10:42:53.212Z,70.95
2018-03-02T10:43:58.433Z,65.35
2018-03-02T10:45:02.925Z,63.03
2018-03-02T10:46:08.182Z,54.88
2018-03-02T10:47:13.262Z,62.22
2018-03-02T10:48:17.729Z,69.78
2018-03-02T10:49:23.695Z,61.90
2018-03-02T10:50:28.174Z,64.97
2018-03-02T10:51:33.421Z,64.47
2018-03-02T10:52:37.909Z,61.85
2018-03-02T10:53:42.367Z,77.47
2018-03-02T10:54:46.970Z,50.90
2018-03-02T10:55:51.429Z,65.00
2018-03-02T10:56:56.013Z,57.95
2018-03-02T10:58:00.469Z,56.65
2018-03-02T10:59:05.712Z,48.92
2018-03-02T11:00:10.121Z,51.90
2018-03-02T11:01:29.276Z,47.45
2018-03-02T11:02:33.988Z,61.22
2018-03-02T11:03:39.045Z,53.55
2018-03-02T11:04:47.490Z,48.40
2018-03-02T11:05:51.949Z,45.90
2018-03-02T11:06:56.421Z,55.67
2018-03-02T11:08:01.770Z,49.30
2018-03-02T11:09:07.770Z,62.80
2018-03-02T11:10:13.076Z,68.82
2018-03-02T11:11:17.337Z,61.92
2018-03-02T11:12:21.789Z,55.38
2018-03-02T11:13:26.084Z,65.43
2018-03-02T11:14:31.125Z,56.33
2018-03-02T11:15:35.578Z,54.85
2018-03-02T11:16:40.035Z,57.55
2018-03-02T11:17:45.288Z,60.95
2018-03-02T11:18:49.761Z,50.15
2018-03-02T11:19:54.988Z,66.95
2018-03-02T11:21:00.205Z,52.95
2018-03-02T11:22:04.665Z,50.47
2018-03-02T11:23:09.160Z,57.17
2018-03-02T11:24:14.391Z,63.25
2018-03-02T11:25:18.841Z,58.70
2018-03-02T11:26:23.299Z,54.83
2018-03-02T11:27:28.508Z,64.85
2018-03-02T11:28:33.359Z,50.63
2018-03-02T11:29:37.841Z,65.95
2018-03-02T11:30:41.961Z,63.53
2018-03-02T11:31:47.180Z,57.10
2018-03-02T11:32:51.634Z,51.72
2018-03-02T11:33:56.081Z,49.58
2018-03-02T11:35:00.631Z,50.03
2018-03-02T11:36:05.650Z,45.78
2018-03-02T11:37:11.113Z,61.22
2018-03-02T11:38:15.663Z,50.12
2018-03-02T11:39:20.105Z,53.15
2018-03-02T11:40:26.269Z,50.30
2018-03-02T11:41:31.482Z,48.03
2018-03-02T11:42:36.723Z,52.08
2018-03-02T11:43:41.949Z,47.58
2018-03-02T11:44:47.182Z,50.30
2018-03-02T11:45:52.427Z,49.95
2018-03-02T11:46:56.915Z,42.90
2018-03-02T11:48:02.497Z,54.92
2018-03-02T11:49:07.136Z,57.13
2018-03-02T11:50:11.636Z,51.65
2018-03-02T11:51:16.109Z,51.70
2018-03-02T11:52:20.224Z,57.05
2018-03-02T11:53:24.672Z,55.83
2018-03-02T11:54:29.132Z,63.92
2018-03-02T11:55:33.584Z,46.37
2018-03-02T11:56:38.070Z,53.53
2018-03-02T11:57:42.523Z,53.30
2018-03-02T11:58:46.982Z,42.72
2018-03-02T11:59:51.461Z,55.00
2018-03-02T12:00:57.425Z,60.08
2018-03-02T12:02:03.025Z,50.80
2018-03-02T12:03:07.282Z,48.70
2018-03-02T12:04:11.966Z,39.38
2018-03-02T12:05:17.462Z,42.72
2018-03-02T12:06:21.986Z,56.70
2018-03-02T12:07:26.586Z,56.58
2018-03-02T12:08:31.034Z,48.25
2018-03-02T12:09:36.990Z,57.95
2018-03-02T12:10:41.480Z,53.67
2018-03-02T12:11:46.114Z,54.97
2018-03-02T12:12:50.599Z,62.53
2018-03-02T12:13:55.064Z,66.65
2018-03-02T12:14:59.523Z,42.28
2018-03-02T12:16:03.967Z,57.08
2018-03-02T12:17:08.865Z,60.30
2018-03-02T12:18:13.333Z,58.08
2018-03-02T12:19:17.781Z,53.25
2018-03-02T12:20:22.247Z,45.45
2018-03-02T12:21:26.701Z,45.63
2018-03-02T12:22:31.168Z,56.15
2018-03-02T12:23:36.574Z,54.58
2018-03-02T12:24:41.878Z,55.90
2018-03-02T12:25:46.336Z,41.22
2018-03-02T12:26:51.541Z,55.60
2018-03-02T12:27:56.777Z,53.40
2018-03-02T12:29:02.021Z,57.55
2018-03-02T12:30:07.670Z,63.58
2018-03-02T12:31:12.433Z,56.15
2018-03-02T12:32:17.047Z,56.10
2018-03-02T12:33:21.667Z,44.92
2018-03-02T12:34:26.713Z,64.05
2018-03-02T12:35:30.961Z,57.22
2018-03-02T12:36:35.433Z,47.72
2018-03-02T12:37:40.059Z,56.45
2018-03-02T12:38:45.485Z,43.20
2018-03-02T12:39:50.122Z,52.80
2018-03-02T12:40:54.565Z,44.55
2018-03-02T12:41:59.040Z,64.60
2018-03-02T12:43:04.237Z,46.90
2018-03-02T12:44:08.689Z,56.67
2018-03-02T12:45:13.185Z,46.92
2018-03-02T12:46:18.410Z,43.05
2018-03-02T12:47:23.616Z,46.80
2018-03-02T12:48:28.065Z,53.25
2018-03-02T12:49:32.186Z,59.78
2018-03-02T12:50:36.663Z,50.00
2018-03-02T12:51:41.883Z,46.47
2018-03-02T12:52:47.093Z,52.75
2018-03-02T12:53:51.537Z,62.03
2018-03-02T12:54:56.752Z,62.85
2018-03-02T12:56:01.999Z,53.15
2018-03-02T12:57:07.218Z,54.50
2018-03-02T12:58:12.112Z,47.25
2018-03-02T12:59:16.556Z,41.67
2018-03-02T13:00:21.791Z,45.58
2018-03-02T13:01:26.253Z,52.25
2018-03-02T13:02:30.714Z,45.35
2018-03-02T13:03:35.914Z,59.65
2018-03-02T13:04:40.356Z,56.08
2018-03-02T13:05:44.865Z,62.85
2018-03-02T13:06:49.018Z,51.35
2018-03-02T13:07:53.486Z,50.05
2018-03-02T13:08:57.947Z,57.92
2018-03-02T13:10:02.406Z,43.78
2018-03-02T13:11:06.849Z,47.97
2018-03-02T13:12:11.329Z,56.35
2018-03-02T13:13:15.445Z,56.45
2018-03-02T13:14:19.584Z,46.97
2018-03-02T13:15:24.034Z,39.65
2018-03-02T13:16:29.245Z,52.55
2018-03-02T13:17:35.120Z,42.38
2018-03-02T13:18:42.698Z,44.28
2018-03-02T13:19:47.965Z,48.42
2018-03-02T13:20:52.422Z,49.60
2018-03-02T13:21:57.650Z,50.85
2018-03-02T13:23:02.912Z,43.13
2018-03-02T13:24:07.349Z,39.25
2018-03-02T13:25:11.809Z,56.28
2018-03-02T13:26:28.335Z,50.60
2018-03-02T13:27:44.174Z,58.90
2018-03-02T13:28:49.501Z,45.72
2018-03-02T13:29:54.766Z,47.55
2018-03-02T13:30:59.210Z,52.42
2018-03-02T13:32:03.663Z,55.03
2018-03-02T13:33:21.006Z,40.12
2018-03-02T13:34:36.502Z,36.38
2018-03-02T13:35:40.969Z,50.63
2018-03-02T13:36:45.431Z,49.63
2018-03-02T13:37:50.080Z,43.65
2018-03-02T13:38:56.223Z,40.88
2018-03-02T13:40:11.821Z,52.10
2018-03-02T13:41:27.526Z,44.90
2018-03-02T13:42:31.985Z,49.70
2018-03-02T13:43:36.924Z,46.85
2018-03-02T13:44:41.417Z,42.80
2018-03-02T13:45:46.163Z,36.72
2018-03-02T13:46:50.626Z,40.50
2018-03-02T13:49:55.764Z,34.80
2018-03-02T13:51:00.225Z,39.75
2018-03-02T13:52:04.350Z,45.17
2018-03-02T13:53:08.478Z,37.08
2018-03-02T13:54:12.941Z,43.45
2018-03-02T13:55:17.385Z,41.92
2018-03-02T13:56:33.174Z,40.65
2018-03-02T13:59:16.629Z,47.33
2018-03-02T14:00:21.117Z,49.22